Time;durP1;ratioP1;P1;durP2;ratioP2;P2;SDS_P1;SDS_P2;PMS_P1;PMS_P2;Temp;Humidity;BMP_temperature;BMP_pressure;BME280_temperature;BME280_humidity;BME280_pressure;Samples;Min_cycle;Max_cycle;Signal;HPM_P1;HPM_P2
2022/07/10 00:00:46;;;;;;;2.70;1.07;;;14.30;57.70;;;14.29;62.36;101458.41;4997799;28;20851;-71
2022/07/10 00:03:15;;;;;;;4.57;1.50;;;14.20;54.10;;;14.38;62.27;101460.94;4998445;28;20492;-73
2022/07/10 00:05:44;;;;;;;3.87;2.00;;;14.30;55.10;;;14.50;62.27;101464.69;5000207;28;20422;-72
2022/07/10 00:08:13;;;;;;;1.40;0.90;;;14.30;55.40;;;14.49;61.96;101463.84;5003628;28;20480;-72
2022/07/10 00:10:42;;;;;;;1.63;1.07;;;14.40;54.40;;;14.32;62.06;101460.72;5003248;28;20415;-73
2022/07/10 00:13:12;;;;;;;4.77;0.87;;;14.30;53.20;;;14.33;61.84;101456.91;5014685;28;20436;-73
2022/07/10 00:15:41;;;;;;;4.37;1.80;;;14.20;53.10;;;14.39;62.27;101462.59;4995461;28;20457;-71
2022/07/10 00:18:10;;;;;;;1.37;0.90;;;14.20;54.80;;;14.38;62.69;101461.75;4995093;28;20405;-73
2022/07/10 00:20:39;;;;;;;4.10;1.40;;;14.30;54.90;;;14.38;62.50;101455.50;4995705;28;20426;-73
2022/07/10 00:23:08;;;;;;;6.73;1.10;;;14.20;54.80;;;14.38;62.01;101455.50;5017508;28;20465;-73
2022/07/10 00:25:38;;;;;;;1.67;1.13;;;14.20;53.80;;;14.49;61.70;101457.53;4995654;28;20392;-73
2022/07/10 00:28:06;;;;;;;6.53;1.40;;;14.30;53.60;;;14.66;61.81;101456.03;5009822;28;20459;-72
2022/07/10 00:30:37;;;;;;;5.60;1.23;;;14.50;54.20;;;14.89;61.21;101458.25;4994160;28;20798;-72
2022/07/10 00:33:06;;;;;;;2.03;1.20;;;14.60;54.10;;;14.93;61.13;101445.84;4994057;28;20467;-73
2022/07/10 00:35:35;;;;;;;1.57;0.70;;;14.70;52.30;;;14.76;61.44;101451.78;4994031;28;20461;-73
2022/07/10 00:38:04;;;;;;;1.67;0.87;;;14.70;51.40;;;14.58;61.62;101450.81;4994902;28;20404;-72
2022/07/10 00:40:33;;;;;;;1.93;1.00;;;14.60;51.50;;;14.42;62.19;101446.69;4994246;28;20411;-73
2022/07/10 00:43:02;;;;;;;2.73;1.17;;;14.40;52.10;;;14.31;62.67;101441.88;5006095;28;20793;-72
2022/07/10 00:45:31;;;;;;;11.83;1.27;;;14.30;52.20;;;14.58;62.38;101445.34;4994062;28;20425;-72
2022/07/10 00:48:02;;;;;;;2.07;1.00;;;14.40;1.00;;;14.57;62.16;101432.81;4994203;28;20430;-73
2022/07/10 00:50:33;;;;;;;2.70;1.53;;;14.40;1.00;;;14.59;61.83;101437.00;5022548;28;20510;-73
2022/07/10 00:53:03;;;;;;;4.30;1.20;;;14.50;1.00;;;14.65;61.82;101430.69;5005631;22;20895;31
2022/07/10 00:55:35;;;;;;;3.07;1.23;;;14.50;1.00;;;14.45;62.23;101434.53;5031931;28;20954;-70
2022/07/10 00:58:07;;;;;;;1.43;0.80;;;14.40;1.00;;;14.47;62.22;101427.00;5033273;28;20886;-71
2022/07/10 01:00:38;;;;;;;2.30;1.13;;;14.40;1.00;;;14.46;62.20;101436.19;5033303;28;20443;-71
2022/07/10 01:03:08;;;;;;;3.03;1.47;;;14.30;1.00;;;14.54;61.76;101425.91;5014450;28;20396;-71
2022/07/10 01:05:38;;;;;;;3.40;0.90;;;14.40;1.00;;;14.45;61.97;101423.63;5019178;28;20520;-70
2022/07/10 01:08:07;;;;;;;5.60;1.30;;;14.40;1.00;;;14.32;62.24;101422.59;5030151;22;20398;-73
2022/07/10 01:10:37;;;;;;;6.50;0.90;;;14.20;1.00;;;14.29;62.60;101423.00;5035267;28;21034;-74
2022/07/10 01:13:22;;;;;;;2.27;1.00;;;14.20;1.00;;;14.42;62.25;101418.63;5055347;28;20433;-74
2022/07/10 01:16:00;;;;;;;1.67;0.70;;;14.20;1.00;;;14.65;62.11;101410.78;5051591;28;20456;-73
2022/07/10 01:18:31;;;;;;;1.93;0.93;;;14.40;1.00;;;14.68;61.56;101405.72;5054715;28;20403;-74
2022/07/10 01:21:01;;;;;;;6.20;1.63;;;14.50;1.00;;;14.61;62.37;101406.81;5046468;28;20707;-73
2022/07/10 01:23:30;;;;;;;4.40;0.90;;;14.50;1.00;;;14.82;61.65;101409.22;5053541;28;20427;-74
2022/07/10 01:26:00;;;;;;;3.37;0.90;;;14.60;1.00;;;14.73;61.41;101399.63;5041260;28;20427;-72
2022/07/10 01:28:32;;;;;;;5.07;1.23;;;14.60;1.00;;;14.72;61.99;101415.13;5017682;28;20460;-72
2022/07/10 01:31:02;;;;;;;2.03;0.77;;;14.60;1.00;;;14.60;61.86;101416.03;5034728;28;20438;-72
2022/07/10 01:33:31;;;;;;;1.30;0.80;;;14.50;1.00;;;14.49;61.98;101413.97;5030153;28;20447;-74
2022/07/10 01:36:02;;;;;;;1.30;0.73;;;14.40;1.00;;;14.35;62.62;101410.44;5032686;28;20522;-72
2022/07/10 01:38:30;;;;;;;2.50;1.13;;;14.30;1.00;;;14.36;63.22;101412.16;5039280;28;20459;-72
2022/07/10 01:40:59;;;;;;;4.80;1.07;;;14.30;1.00;;;14.56;62.38;101410.19;5032312;28;20812;-73
2022/07/10 01:43:28;;;;;;;3.70;0.77;;;14.30;1.00;;;14.26;62.81;101412.56;5021862;28;20438;-72
2022/07/10 01:45:57;;;;;;;1.87;0.93;;;14.20;1.00;;;14.38;62.54;101401.84;5015083;28;20510;-72
2022/07/10 01:48:26;;;;;;;6.80;1.43;;;14.30;1.00;;;14.28;62.98;101407.72;5032754;28;20523;-73
2022/07/10 01:50:55;;;;;;;3.17;1.00;;;14.20;1.00;;;14.25;63.34;101405.44;5044716;28;20931;-75
2022/07/10 01:53:26;;;;;;;4.00;0.80;;;14.20;1.00;;;14.44;63.02;101405.63;5032935;28;20418;-72
2022/07/10 01:55:56;;;;;;;2.23;0.90;;;14.20;1.00;;;14.34;63.03;101406.88;5044107;28;20458;-74
2022/07/10 01:58:25;;;;;;;4.40;1.10;;;14.20;1.00;;;14.26;63.22;101414.44;5032702;28;20409;-73
2022/07/10 02:00:54;;;;;;;1.40;1.30;;;14.20;1.00;;;14.19;63.72;101403.56;5024129;28;20501;-73
2022/07/10 02:06:12;;;;;;;1.43;0.80;;;14.00;1.00;;;14.09;63.72;101408.59;5031760;28;20406;-72
2022/07/10 02:08:43;;;;;;;1.77;0.70;;;14.00;1.00;;;14.14;63.81;101416.13;5030769;28;20482;-72
2022/07/10 02:11:12;;;;;;;4.90;0.80;;;14.00;99.90;;;14.23;63.29;101420.31;5034653;28;20417;-73
2022/07/10 02:13:42;;;;;;;2.47;0.80;;;14.10;1.00;;;14.05;63.75;101410.09;5032153;28;20543;-73
2022/07/10 02:16:11;;;;;;;3.47;2.30;;;13.90;1.00;;;14.00;63.83;101419.94;5031308;28;20466;-72
2022/07/10 02:18:41;;;;;;;1.60;0.70;;;13.90;91.00;;;13.97;63.98;101410.31;5030563;28;20424;-72
2022/07/10 02:21:11;;;;;;;1.80;0.90;;;13.80;1.00;;;14.03;63.85;101404.03;5030518;28;20407;-72
2022/07/10 02:23:42;;;;;;;2.10;0.73;;;13.90;99.90;;;13.89;64.45;101400.47;5037531;28;20551;-72
2022/07/10 02:26:11;;;;;;;3.07;0.80;;;13.80;99.90;;;14.18;63.72;101407.34;5030872;28;20472;-72
2022/07/10 02:28:40;;;;;;;0.90;0.60;;;14.00;12.30;;;14.00;64.31;101409.88;5040691;28;20949;-72
2022/07/10 02:31:10;;;;;;;1.23;0.70;;;13.90;99.90;;;14.01;64.75;101400.69;5033979;28;20403;-72
2022/07/10 02:33:39;;;;;;;11.70;1.23;;;13.90;69.40;;;14.18;64.38;101395.63;5033328;28;20477;-73
2022/07/10 02:36:08;;;;;;;1.80;0.87;;;14.00;72.30;;;14.33;64.16;101394.31;5033845;28;20434;-73
2022/07/10 02:38:37;;;;;;;1.83;0.90;;;14.10;71.00;;;14.33;64.21;101394.31;5037178;28;20402;-73
2022/07/10 02:41:08;;;;;;;1.83;0.90;;;14.20;70.60;;;14.02;64.92;101396.09;5034406;28;20418;-71
2022/07/10 02:43:37;;;;;;;1.33;0.70;;;14.00;70.10;;;13.98;65.42;101390.22;5030571;28;20473;-72
2022/07/10 02:46:07;;;;;;;1.30;0.70;;;14.00;75.10;;;14.15;64.94;101396.88;5031832;28;20415;-72
2022/07/10 02:48:36;;;;;;;2.97;1.43;;;14.00;76.20;;;14.00;65.51;101390.00;5045741;28;20458;-72
2022/07/10 02:51:06;;;;;;;3.53;0.80;;;13.90;77.50;;;13.98;65.68;101390.22;5031809;28;20399;-72
2022/07/10 02:53:35;;;;;;;1.10;0.70;;;13.90;79.60;;;13.96;66.12;101397.75;5030520;28;20448;-72
2022/07/10 02:56:05;;;;;;;2.50;0.80;;;13.90;83.10;;;13.85;66.21;101390.22;5012825;28;20414;-73
2022/07/10 02:58:35;;;;;;;4.37;0.80;;;13.70;84.20;;;13.90;65.89;101393.16;5012616;28;20495;-72
2022/07/10 03:01:06;;;;;;;1.00;0.80;;;13.80;84.60;;;13.61;66.87;101399.88;5030196;28;20433;-72
2022/07/10 03:03:35;;;;;;;1.00;0.60;;;13.60;88.20;;;13.62;67.07;101384.41;5024222;28;20462;-72
2022/07/10 03:06:04;;;;;;;5.73;1.03;;;13.50;91.20;;;13.69;66.98;101396.13;5031866;28;20414;-72
2022/07/10 03:08:33;;;;;;;3.67;1.10;;;13.60;92.00;;;13.64;67.16;101383.16;5029829;28;20443;-72
2022/07/10 03:11:02;;;;;;;2.13;0.70;;;13.50;92.80;;;13.61;67.04;101390.88;5030160;28;20428;-71
2022/07/10 03:13:31;;;;;;;1.47;0.80;;;13.50;93.00;;;13.69;67.32;101387.97;5037959;28;20431;-72
2022/07/10 03:16:02;;;;;;;2.80;1.20;;;13.50;94.60;;;13.60;67.45;101386.53;5030121;28;20441;-73
2022/07/10 03:18:31;;;;;;;1.93;1.20;;;13.50;95.10;;;13.97;66.79;101390.44;5029921;28;20445;-72
2022/07/10 03:21:00;;;;;;;3.63;0.80;;;13.70;95.10;;;14.10;66.21;101383.06;5029781;28;20435;-72
2022/07/10 03:23:29;;;;;;;1.20;0.73;;;13.90;92.70;;;14.06;65.75;101386.44;5030999;28;20460;-72
2022/07/10 03:25:59;;;;;;;1.60;0.70;;;13.90;90.30;;;13.91;66.37;101383.94;5035284;28;20904;-72
2022/07/10 03:28:28;;;;;;;1.10;0.67;;;13.80;90.90;;;13.89;66.77;101383.34;5031863;28;20407;-72
2022/07/10 03:30:57;;;;;;;1.37;0.67;;;13.80;92.30;;;13.99;66.55;101389.16;5034477;28;20537;-72
2022/07/10 03:33:28;;;;;;;2.23;0.90;;;13.80;93.20;;;13.88;66.46;101374.34;5037666;28;20876;-71
2022/07/10 03:35:57;;;;;;;1.87;0.60;;;13.80;91.30;;;13.88;66.63;101373.50;5029623;28;20424;-72
2022/07/10 03:38:26;;;;;;;2.37;0.87;;;13.80;92.50;;;14.01;66.92;101378.06;5031202;28;21039;-73
2022/07/10 03:40:55;;;;;;;1.37;0.80;;;13.90;94.40;;;14.19;65.82;101372.78;5029841;28;20439;-72
2022/07/10 03:43:24;;;;;;;1.73;0.90;;;14.00;91.80;;;13.97;66.57;101377.66;5030603;28;20448;-72
2022/07/10 03:45:53;;;;;;;1.30;0.80;;;13.90;92.20;;;14.00;66.58;101377.22;5017107;28;20954;-72
2022/07/10 03:48:22;;;;;;;4.40;1.37;;;13.90;92.70;;;14.09;66.37;101378.66;5029415;28;20893;-73
2022/07/10 03:50:53;;;;;;;4.17;1.40;;;13.90;92.30;;;14.15;66.33;101372.38;5040751;28;20436;-73
2022/07/10 03:53:22;;;;;;;4.30;1.33;;;13.90;93.20;;;14.06;66.91;101370.09;5011873;28;20463;-73
2022/07/10 03:55:51;;;;;;;1.40;0.80;;;13.90;93.20;;;14.15;66.64;101377.81;5032668;28;20462;-72
2022/07/10 03:58:20;;;;;;;5.93;1.53;;;13.90;93.70;;;14.14;66.37;101378.88;5037191;28;20458;-75
2022/07/10 04:00:49;;;;;;;1.20;0.77;;;14.00;92.80;;;14.06;66.93;101376.38;5038624;28;20436;-73
2022/07/10 04:03:18;;;;;;;2.27;0.90;;;13.90;93.90;;;14.14;67.03;101375.31;5015973;28;20555;-72
2022/07/10 04:05:47;;;;;;;2.90;0.97;;;14.00;94.20;;;14.19;66.97;101379.06;5033141;28;20425;-72
2022/07/10 04:08:17;;;;;;;2.30;1.00;;;14.00;94.50;;;14.42;66.27;101372.34;5029912;28;20426;-73
2022/07/10 04:10:46;;;;;;;2.30;0.80;;;14.20;93.80;;;14.35;66.70;101375.03;5030194;28;20444;-73
2022/07/10 04:13:15;;;;;;;1.73;1.00;;;14.20;94.40;;;14.40;66.47;101378.00;5029782;28;20451;-72
2022/07/10 04:15:44;;;;;;;3.20;0.90;;;14.20;93.40;;;14.27;66.57;101378.00;5036260;28;21079;-72
2022/07/10 04:18:13;;;;;;;2.27;1.17;;;14.20;93.50;;;14.53;66.25;101379.81;5029572;28;20438;-72
2022/07/10 04:20:42;;;;;;;3.47;1.00;;;14.30;94.00;;;14.32;66.43;101379.03;5030382;28;20419;-72
2022/07/10 04:23:12;;;;;;;7.30;1.30;;;14.20;92.80;;;14.36;66.55;101376.75;5036268;28;20434;-73
2022/07/10 04:25:42;;;;;;;2.30;1.10;;;14.30;93.30;;;14.07;67.21;101372.63;5030139;28;20411;-73
2022/07/10 04:28:11;;;;;;;3.00;1.20;;;14.00;93.90;;;14.39;66.94;101375.47;5035749;28;20407;-73
2022/07/10 04:30:40;;;;;;;6.77;0.90;;;14.20;95.80;;;14.20;67.04;101371.75;5032903;28;20432;-73
2022/07/10 04:33:09;;;;;;;1.77;1.27;;;14.10;94.60;;;13.98;68.28;101371.19;5032648;28;20430;-72
2022/07/10 04:35:39;;;;;;;2.10;1.00;;;13.90;97.30;;;14.21;67.65;101373.41;5032399;28;20471;-71
2022/07/10 04:38:09;;;;;;;1.20;0.80;;;14.00;97.30;;;14.21;67.41;101362.53;5032535;28;20469;-74
2022/07/10 04:40:38;;;;;;;3.20;0.83;;;14.00;97.40;;;14.17;67.23;101362.13;5033746;28;20411;-72
2022/07/10 04:43:09;;;;;;;3.10;1.00;;;14.00;96.20;;;14.24;66.92;101364.81;5035951;28;20505;-73
2022/07/10 04:45:39;;;;;;;1.20;0.80;;;14.10;95.10;;;13.96;68.11;101364.28;5034715;28;20430;-73
2022/07/10 04:48:08;;;;;;;2.53;1.07;;;13.90;97.10;;;13.97;68.35;101366.78;5036024;28;20759;-72
2022/07/10 04:50:37;;;;;;;1.43;0.83;;;13.90;98.40;;;14.24;67.65;101356.66;5035508;28;20408;-72
2022/07/10 04:53:06;;;;;;;1.20;0.70;;;14.00;99.40;;;14.28;67.07;101369.59;5041381;28;20451;-72
2022/07/10 04:55:35;;;;;;;4.50;0.80;;;14.10;97.30;;;14.21;67.49;101363.38;5032591;28;20847;-74
2022/07/10 04:58:04;;;;;;;3.17;1.10;;;14.00;98.10;;;14.71;66.50;101372.63;5036113;28;20446;-74
2022/07/10 05:00:34;;;;;;;1.20;0.80;;;14.30;98.10;;;14.76;66.57;101361.06;5033292;28;20472;-73
2022/07/10 05:03:03;;;;;;;6.90;1.60;;;14.40;96.90;;;14.38;66.63;101362.94;5033183;28;20529;-73
2022/07/10 05:05:34;;;;;;;1.90;1.00;;;14.30;94.30;;;14.38;67.00;101379.28;5034958;28;20447;-73
2022/07/10 05:08:03;;;;;;;8.50;1.47;;;14.30;95.50;;;14.21;67.57;101366.09;5017175;28;20418;-73
2022/07/10 05:10:32;;;;;;;4.70;1.00;;;14.20;96.50;;;14.19;67.82;101370.91;5041315;28;20773;-73
2022/07/10 05:13:01;;;;;;;2.90;1.67;;;14.10;98.00;;;14.30;68.22;101367.53;5034315;28;20442;-73
2022/07/10 05:15:31;;;;;;;4.73;1.27;;;14.10;99.80;;;14.31;67.55;101363.75;5033172;28;20402;-72
2022/07/10 05:18:01;;;;;;;3.80;1.03;;;14.20;97.50;;;14.17;67.96;101362.13;5033871;28;20496;-72
2022/07/10 05:20:30;;;;;;;7.83;1.63;;;14.10;98.80;;;14.47;67.71;101367.06;5032542;28;20417;-73
2022/07/10 05:22:59;;;;;;;1.93;0.90;;;14.20;99.90;;;14.44;67.18;101362.03;5033715;28;20796;-73
2022/07/10 05:25:30;;;;;;;2.93;0.83;;;14.20;97.70;;;14.67;66.70;101359.63;5035816;28;20859;-72
2022/07/10 05:27:59;;;;;;;1.97;1.20;;;14.30;97.30;;;14.35;67.03;101356.81;5017620;28;20527;-72
2022/07/10 05:30:28;;;;;;;4.60;2.30;;;14.30;95.50;;;14.57;66.83;101370.19;5039737;28;20407;-73
2022/07/10 05:32:57;;;;;;;4.03;1.07;;;14.30;97.10;;;14.43;67.05;101371.25;5032800;28;20430;-73
2022/07/10 05:35:28;;;;;;;3.60;1.20;;;14.30;96.80;;;14.32;67.61;101367.31;5035826;28;20434;-73
2022/07/10 05:37:57;;;;;;;4.80;1.10;;;14.20;96.90;;;14.34;67.41;101365.19;5032109;28;20833;-73
2022/07/10 05:40:27;;;;;;;3.10;1.50;;;14.20;97.50;;;14.45;67.44;101364.56;5032838;28;20780;-72
2022/07/10 05:42:56;;;;;;;1.87;0.93;;;14.20;98.40;;;14.42;66.81;101375.06;5025063;28;20491;-73
2022/07/10 05:45:25;;;;;;;3.47;0.90;;;14.30;95.90;;;14.31;67.20;101366.47;5031507;28;20417;-72
2022/07/10 05:47:54;;;;;;;1.93;0.93;;;14.20;96.50;;;14.44;67.04;101362.03;5036942;28;20511;-72
2022/07/10 05:50:24;;;;;;;3.83;1.47;;;14.30;96.90;;;14.50;66.97;101367.47;5035981;28;20436;-72
2022/07/10 05:52:54;;;;;;;3.13;1.00;;;14.30;96.30;;;14.67;66.40;101367.78;5036644;28;20455;-72
2022/07/10 05:55:23;;;;;;;2.63;1.50;;;14.50;95.60;;;14.60;66.64;101369.72;5033090;28;20432;-73
2022/07/10 05:57:54;;;;;;;6.20;1.70;;;14.40;95.20;;;14.74;66.22;101369.44;5031329;28;20506;-73
2022/07/10 06:00:23;;;;;;;5.53;1.33;;;14.50;94.80;;;14.37;67.18;101372.97;5032652;28;20536;-75
2022/07/10 06:02:52;;;;;;;6.00;1.47;;;14.30;94.60;;;14.32;67.11;101375.47;5031576;28;20517;-72
2022/07/10 06:05:22;;;;;;;21.70;2.07;;;14.20;95.40;;;14.38;67.41;101368.38;5013577;28;20513;-72
2022/07/10 06:07:51;;;;;;;2.67;0.87;;;14.20;96.90;;;14.45;66.99;101380.06;5037449;28;20432;-73
2022/07/10 06:10:21;;;;;;;1.50;0.90;;;14.30;96.50;;;14.44;66.70;101368.31;5033800;28;20395;-72
2022/07/10 06:12:50;;;;;;;3.30;1.10;;;14.30;95.40;;;14.41;66.88;101367.94;5040554;28;20417;-72
2022/07/10 06:15:20;;;;;;;8.87;1.63;;;14.20;95.80;;;14.22;67.60;101369.66;5031277;28;20417;-72
2022/07/10 06:17:49;;;;;;;2.07;1.17;;;14.10;97.20;;;14.34;67.48;101374.19;5033998;28;20435;-72
2022/07/10 06:20:18;;;;;;;6.23;1.17;;;14.20;97.60;;;14.39;67.10;101378.19;5038879;28;20462;-72
2022/07/10 06:22:47;;;;;;;2.80;1.10;;;14.20;96.80;;;14.44;66.22;101373.78;5031159;28;20456;-73
2022/07/10 06:25:16;;;;;;;3.80;1.20;;;14.20;95.10;;;14.55;65.81;101369.53;5031165;28;20436;-74
2022/07/10 06:27:46;;;;;;;2.17;1.30;;;14.30;93.50;;;14.65;65.55;101367.19;5030982;28;20439;-74
2022/07/10 06:30:15;;;;;;;6.93;1.40;;;14.40;92.70;;;14.80;64.77;101378.63;5031807;28;20431;-73
2022/07/10 06:32:45;;;;;;;3.57;1.10;;;14.60;90.80;;;14.88;64.09;101372.94;5034473;28;20430;-73
2022/07/10 06:35:14;;;;;;;3.83;0.97;;;14.60;86.60;;;14.85;64.30;101369.81;5038461;28;20406;-72
2022/07/10 06:37:43;;;;;;;6.37;1.43;;;14.60;86.60;;;15.17;63.93;101369.59;5032428;28;20411;-72
2022/07/10 06:40:15;;;;;;;4.90;1.47;;;14.80;86.90;;;15.32;63.06;101372.00;5036839;28;20879;-72
2022/07/10 06:42:45;;;;;;;4.20;1.10;;;15.00;81.30;;;15.30;63.28;101362.38;5033592;28;20422;-72
2022/07/10 06:45:14;;;;;;;2.97;1.30;;;15.00;80.70;;;15.44;63.15;101372.94;5034548;28;20757;-72
2022/07/10 06:47:59;;;;;;;3.73;1.03;;;15.10;78.50;;;15.44;62.89;101377.56;5012740;28;20440;-72
2022/07/10 06:50:30;;;;;;;3.70;0.90;;;15.30;76.30;;;15.34;62.50;101371.78;5012962;28;20962;-71
2022/07/10 06:53:00;;;;;;;3.00;1.13;;;15.10;71.50;;;15.28;61.92;101378.94;5030640;28;20426;-73
2022/07/10 06:55:30;;;;;;;4.43;1.40;;;15.10;65.20;;;15.17;61.06;101379.66;5058590;22;21010;-71
2022/07/10 06:58:01;;;;;;;2.37;0.90;;;15.10;59.40;;;15.30;61.08;101376.00;5045988;28;20431;-70
2022/07/10 07:00:30;;;;;;;2.60;0.97;;;15.10;59.00;;;15.55;60.83;101374.13;5056988;28;20429;-72
2022/07/10 07:02:59;;;;;;;3.73;1.13;;;15.30;59.10;;;16.03;59.61;101366.94;5039408;28;20432;-71
2022/07/10 07:05:28;;;;;;;5.10;1.30;;;15.60;57.10;;;16.14;59.20;101369.97;5056738;28;20420;-71
2022/07/10 07:11:02;;;;;;;5.50;1.20;;;16.00;51.50;;;16.52;57.09;101368.66;5019114;28;20414;-70
2022/07/10 07:13:33;;;;;;;2.90;0.93;;;16.20;46.20;;;16.86;56.35;101364.44;5019442;28;20514;-71
2022/07/10 07:16:06;;;;;;;3.00;1.33;;;16.40;44.10;;;16.66;56.13;101358.41;5022470;28;20411;-69
2022/07/10 07:18:37;;;;;;;5.97;1.43;;;16.40;41.10;;;16.82;55.89;101356.94;5025532;28;20450;-69
2022/07/10 07:23:53;;;;;;;4.00;1.17;;;16.50;38.80;;;16.07;57.99;101359.97;5016821;28;20424;-68
2022/07/10 07:26:22;;;;;;;4.67;1.50;;;16.10;40.50;;;16.47;57.09;101360.31;5030635;28;20439;-70
2022/07/10 07:28:53;;;;;;;5.20;1.10;;;16.20;41.40;;;16.08;57.33;101360.78;5016783;28;20479;-69
2022/07/10 07:31:22;;;;;;;4.37;2.10;;;16.00;39.80;;;16.02;57.12;101356.25;5027613;28;20431;-69
2022/07/10 07:33:51;;;;;;;3.10;1.07;;;15.90;38.90;;;16.39;56.40;101362.53;5021154;28;20750;-70
2022/07/10 07:36:20;;;;;;;4.00;1.13;;;16.10;39.10;;;16.23;54.22;101357.69;5028196;28;20531;-68
2022/07/10 07:38:49;;;;;;;6.00;1.70;;;16.00;32.80;;;16.31;54.23;101365.59;5022732;28;20822;-69
2022/07/10 07:41:18;;;;;;;1.80;1.50;;;16.00;32.20;;;16.09;53.55;101374.22;5019770;28;20535;-69
2022/07/10 07:43:47;;;;;;;3.83;1.40;;;16.00;29.40;;;16.53;53.16;101369.50;5016300;28;20967;-70
2022/07/10 07:46:17;;;;;;;5.80;1.50;;;16.20;29.70;;;16.83;52.01;101364.94;5021414;28;20437;-70
2022/07/10 07:48:46;;;;;;;2.80;1.10;;;16.40;28.20;;;16.62;52.50;101362.69;5024939;28;20423;-70
2022/07/10 07:51:15;;;;;;;3.30;1.00;;;16.40;27.70;;;16.69;52.51;101368.06;5028117;28;20440;-70
2022/07/10 07:53:44;;;;;;;4.13;1.20;;;16.40;27.60;;;16.99;52.42;101384.47;5027293;28;20408;-70
2022/07/10 07:56:13;;;;;;;13.40;1.73;;;16.60;28.00;;;16.90;52.47;101362.06;5023050;28;20779;-69
2022/07/10 07:58:42;;;;;;;4.50;1.00;;;16.60;26.90;;;17.12;51.70;101365.13;5021749;28;20960;-70
2022/07/10 08:01:12;;;;;;;2.13;0.93;;;16.80;26.20;;;17.09;52.08;101363.69;5018737;28;20407;-69
2022/07/10 08:03:42;;;;;;;3.63;1.20;;;16.90;26.50;;;17.03;52.19;101363.81;5023426;28;20442;-69
2022/07/10 08:06:34;;;;;;;9.93;2.63;;;16.90;25.90;;;16.91;51.94;101350.91;5031682;28;20791;-70
2022/07/10 08:09:03;;;;;;;1.30;1.00;;;16.70;24.80;;;16.69;52.45;101354.41;5033803;28;20948;-69
2022/07/10 08:11:32;;;;;;;2.80;1.17;;;16.60;25.10;;;17.06;51.39;101363.31;5031223;28;20507;-68
2022/07/10 08:14:01;;;;;;;3.43;1.30;;;16.80;24.50;;;17.16;51.65;101355.38;5016320;28;20911;-71
2022/07/10 08:16:30;;;;;;;5.33;1.40;;;16.90;24.70;;;17.15;51.33;101350.97;5023045;28;20421;-70
2022/07/10 08:19:01;;;;;;;2.83;1.23;;;17.00;23.90;;;17.41;50.22;101356.03;5016719;28;20534;-69
2022/07/10 08:21:30;;;;;;;4.70;1.20;;;17.20;22.60;;;17.71;49.33;101350.50;5031252;28;20428;-70
2022/07/10 08:23:59;;;;;;;5.30;1.27;;;17.50;21.60;;;17.83;49.47;101342.25;5025165;28;20770;-69
2022/07/10 08:26:28;;;;;;;2.60;0.80;;;17.60;21.10;;;17.48;49.75;101351.28;5032528;28;20410;-70
2022/07/10 08:28:57;;;;;;;1.20;0.70;;;17.40;20.20;;;17.37;49.20;101352.09;5019579;28;20423;-70
2022/07/10 08:31:26;;;;;;;3.20;0.90;;;17.30;19.40;;;17.13;49.89;101342.19;5025211;28;20434;-69
2022/07/10 08:33:55;;;;;;;2.03;1.00;;;17.10;19.30;;;16.90;50.16;101348.41;5021527;28;20932;-70
2022/07/10 08:36:26;;;;;;;1.70;1.00;;;16.90;19.90;;;17.14;48.81;101355.63;5023942;28;20531;-69
2022/07/10 08:39:09;;;;;;;2.03;0.83;;;16.90;18.80;;;17.13;47.65;101353.13;5017948;28;20784;-70
2022/07/10 08:41:39;;;;;;;2.90;1.47;;;17.00;16.90;;;17.49;47.52;101360.31;5022221;28;20406;-69
2022/07/10 08:44:08;;;;;;;2.80;1.33;;;17.10;16.70;;;17.32;49.47;101360.19;5027457;28;20787;-69
2022/07/10 08:46:39;;;;;;;3.13;1.37;;;17.20;18.80;;;17.38;50.54;101364.69;5031534;28;20501;-70
2022/07/10 08:49:11;;;;;;;3.37;1.20;;;17.10;20.30;;;17.31;50.22;101372.19;5027311;28;20953;-69
2022/07/10 08:51:49;;;;;;;6.17;1.53;;;17.20;19.70;;;17.15;51.35;101367.38;5025832;28;20395;-69
2022/07/10 08:54:19;;;;;;;11.00;1.40;;;17.00;20.80;;;17.29;51.04;101369.69;5030251;28;20440;-69
2022/07/10 08:56:51;;;;;;;5.17;1.83;;;17.00;21.20;;;17.21;51.37;101367.28;5029612;28;20404;-70
2022/07/10 08:59:23;;;;;;;5.07;1.20;;;17.00;21.30;;;17.42;51.46;101373.28;5024748;28;20517;-69
2022/07/10 09:02:00;;;;;;;7.57;1.37;;;17.00;21.90;;;16.94;51.50;101372.31;5028992;28;20455;-70
2022/07/10 09:04:29;;;;;;;2.17;1.20;;;16.90;20.70;;;17.19;51.01;101374.88;5026985;28;20460;-70
2022/07/10 09:07:00;;;;;;;6.10;1.03;;;17.00;20.70;;;17.30;49.94;101367.78;5020877;28;20809;-70
2022/07/10 09:09:29;;;;;;;5.17;1.37;;;17.00;19.80;;;17.70;49.36;101377.03;5020641;28;20439;-70
2022/07/10 09:11:59;;;;;;;3.63;1.90;;;17.30;19.50;;;17.77;49.28;101383.22;5027239;28;20447;-70
2022/07/10 09:14:28;;;;;;;3.30;1.40;;;17.40;19.00;;;17.56;48.71;101370.09;5018071;28;20948;-70
2022/07/10 09:17:04;;;;;;;2.63;0.97;;;17.40;17.80;;;17.37;48.55;101380.31;5015106;28;20407;-69
2022/07/10 09:19:33;;;;;;;4.03;2.40;;;17.20;17.10;;;17.11;48.86;101379.88;5021475;28;20502;-69
2022/07/10 09:22:07;;;;;;;6.83;1.30;;;17.00;16.90;;;17.03;48.84;101382.94;5024084;28;20428;-70
2022/07/10 09:24:38;;;;;;;2.10;1.10;;;16.90;16.70;;;17.62;48.27;101377.38;5022460;28;20990;-69
2022/07/10 09:27:09;;;;;;;3.27;1.30;;;17.20;17.20;;;17.74;47.98;101371.91;5024811;28;20412;-69
2022/07/10 09:29:48;;;;;;;3.07;1.13;;;17.40;16.60;;;18.12;47.79;101368.66;5019742;28;20460;-69
2022/07/10 09:32:18;;;;;;;3.00;1.10;;;17.70;16.80;;;18.03;47.52;101373.69;5023773;28;20400;-70
2022/07/10 09:34:49;;;;;;;5.33;1.33;;;17.90;15.80;;;18.03;47.27;101370.09;5019475;28;20432;-70
2022/07/10 09:37:28;;;;;;;1.77;1.10;;;17.80;15.50;;;18.27;46.76;101371.75;5026702;28;20891;-69
2022/07/10 09:39:59;;;;;;;3.10;1.97;;;18.00;14.90;;;18.45;46.32;101382.53;5014251;28;20863;-70
2022/07/10 09:42:32;;;;;;;3.43;1.50;;;18.20;14.70;;;18.66;46.14;101387.41;5018500;28;20903;-70
2022/07/10 09:45:20;;;;;;;3.40;1.03;;;18.30;14.20;;;18.66;45.41;101367.38;5019666;28;20442;-70
2022/07/10 09:47:58;;;;;;;5.83;1.53;;;18.40;13.00;;;18.77;45.44;101371.97;5021183;28;20402;-70
2022/07/10 09:50:30;;;;;;;4.03;2.07;;;18.50;13.40;;;19.00;44.95;101376.53;5025517;28;20828;-70
2022/07/10 09:53:03;;;;;;;3.27;1.47;;;18.70;12.70;;;18.44;46.33;101383.63;5029931;28;20399;-70
2022/07/10 09:55:35;;;;;;;1.83;1.10;;;18.40;12.70;;;18.18;46.84;101356.75;5021518;28;20437;-71
2022/07/10 09:58:07;;;;;;;4.73;1.00;;;18.10;13.30;;;18.59;46.52;101381.19;5016325;28;20987;-72
2022/07/10 10:00:38;;;;;;;5.90;2.00;;;18.30;14.10;;;18.25;46.33;101371.97;5021079;28;20478;-70
2022/07/10 10:03:11;;;;;;;2.83;0.97;;;18.20;13.20;;;18.93;45.77;101370.34;5019060;28;20516;-70
2022/07/10 10:05:46;;;;;;;6.50;1.07;;;18.40;13.50;;;18.86;45.18;101383.38;5032894;28;20403;-70
2022/07/10 10:08:20;;;;;;;3.60;1.40;;;18.60;12.50;;;18.66;45.77;101370.94;5024238;28;20436;-70
2022/07/10 10:10:52;;;;;;;3.10;1.30;;;18.50;12.30;;;18.65;45.90;101385.72;5025704;28;20424;-71
2022/07/10 10:13:23;;;;;;;6.27;1.63;;;18.40;12.30;;;18.19;46.27;101385.81;5023642;28;20807;-70
2022/07/10 10:15:53;;;;;;;2.70;1.17;;;18.20;12.00;;;18.22;46.72;101383.41;5017739;28;20443;-70
2022/07/10 10:18:23;;;;;;;1.60;1.20;;;18.10;13.00;;;17.96;46.78;101383.91;5025255;28;20410;-70
2022/07/10 10:20:53;;;;;;;4.37;1.00;;;17.90;12.60;;;18.14;46.87;101380.22;5030100;28;20450;-69
2022/07/10 10:23:27;;;;;;;3.30;1.10;;;17.90;12.90;;;17.94;47.04;101383.34;5024170;28;20412;-70
2022/07/10 10:25:58;;;;;;;2.87;1.60;;;17.80;12.70;;;17.46;47.86;101380.78;5028627;28;20513;-70
2022/07/10 10:28:28;;;;;;;4.60;1.20;;;17.50;13.30;;;17.73;47.09;101387.50;5023842;28;20407;-70
2022/07/10 10:31:01;;;;;;;6.50;1.10;;;17.50;13.00;;;17.95;46.63;101375.97;5030936;28;20432;-70
2022/07/10 10:33:48;;;;;;;3.93;1.00;;;17.70;13.00;;;18.84;45.18;101391.84;5015933;28;20517;-70